sensor_id;sensor_type;location;lat;lon;timestamp;P1;durP1;ratioP1;P2;durP2;ratioP2
47764;SDS011;33529;49.242;8.670;2022-07-23T00:00:18;10.82;;;9.73;;
47764;SDS011;33529;49.242;8.670;2022-07-23T00:02:46;12.95;;;9.20;;
47764;SDS011;33529;49.242;8.670;2022-07-23T00:05:13;9.25;;;8.35;;
47764;SDS011;33529;49.242;8.670;2022-07-23T00:07:40;10.30;;;9.02;;
47764;SDS011;33529;49.242;8.670;2022-07-23T00:10:07;9.35;;;8.38;;
47764;SDS011;33529;49.242;8.670;2022-07-23T00:12:34;10.23;;;9.23;;
47764;SDS011;33529;49.242;8.670;2022-07-23T00:15:02;10.00;;;8.40;;
47764;SDS011;33529;49.242;8.670;2022-07-23T00:17:30;10.80;;;9.20;;
47764;SDS011;33529;49.242;8.670;2022-07-23T00:19:57;12.43;;;10.10;;
47764;SDS011;33529;49.242;8.670;2022-07-23T00:22:24;9.38;;;8.48;;
47764;SDS011;33529;49.242;8.670;2022-07-23T00:24:52;10.35;;;9.25;;
47764;SDS011;33529;49.242;8.670;2022-07-23T00:27:39;9.93;;;8.93;;
47764;SDS011;33529;49.242;8.670;2022-07-23T00:30:06;10.40;;;9.40;;
47764;SDS011;33529;49.242;8.670;2022-07-23T00:32:44;13.98;;;12.43;;
47764;SDS011;33529;49.242;8.670;2022-07-23T00:35:21;12.45;;;10.80;;
47764;SDS011;33529;49.242;8.670;2022-07-23T00:37:50;12.57;;;11.38;;
47764;SDS011;33529;49.242;8.670;2022-07-23T00:40:16;11.25;;;9.93;;
47764;SDS011;33529;49.242;8.670;2022-07-23T00:42:43;10.02;;;9.02;;
47764;SDS011;33529;49.242;8.670;2022-07-23T00:45:10;11.55;;;10.35;;
47764;SDS011;33529;49.242;8.670;2022-07-23T00:47:38;10.73;;;9.63;;
47764;SDS011;33529;49.242;8.670;2022-07-23T00:50:06;12.10;;;10.40;;
47764;SDS011;33529;49.242;8.670;2022-07-23T00:52:34;11.25;;;10.15;;
47764;SDS011;33529;49.242;8.670;2022-07-23T00:55:02;11.70;;;10.50;;
47764;SDS011;33529;49.242;8.670;2022-07-23T00:57:30;13.95;;;11.38;;
47764;SDS011;33529;49.242;8.670;2022-07-23T00:59:57;12.10;;;10.90;;
47764;SDS011;33529;49.242;8.670;2022-07-23T01:02:24;13.10;;;10.88;;
47764;SDS011;33529;49.242;8.670;2022-07-23T01:04:54;11.10;;;10.00;;
47764;SDS011;33529;49.242;8.670;2022-07-23T01:07:21;11.55;;;10.43;;
47764;SDS011;33529;49.242;8.670;2022-07-23T01:09:48;11.75;;;10.55;;
47764;SDS011;33529;49.242;8.670;2022-07-23T01:12:15;13.45;;;10.93;;
47764;SDS011;33529;49.242;8.670;2022-07-23T01:14:42;11.80;;;10.55;;
47764;SDS011;33529;49.242;8.670;2022-07-23T01:17:09;12.27;;;11.00;;
47764;SDS011;33529;49.242;8.670;2022-07-23T01:19:36;11.90;;;10.77;;
47764;SDS011;33529;49.242;8.670;2022-07-23T01:22:03;11.40;;;10.20;;
47764;SDS011;33529;49.242;8.670;2022-07-23T01:24:30;12.68;;;11.48;;
47764;SDS011;33529;49.242;8.670;2022-07-23T01:27:01;11.32;;;10.23;;
47764;SDS011;33529;49.242;8.670;2022-07-23T01:29:28;11.73;;;10.63;;
47764;SDS011;33529;49.242;8.670;2022-07-23T01:31:58;11.73;;;10.35;;
47764;SDS011;33529;49.242;8.670;2022-07-23T01:34:25;13.65;;;10.50;;
47764;SDS011;33529;49.242;8.670;2022-07-23T01:36:52;11.57;;;10.30;;
47764;SDS011;33529;49.242;8.670;2022-07-23T01:39:19;13.38;;;11.18;;
47764;SDS011;33529;49.242;8.670;2022-07-23T01:41:49;12.00;;;9.75;;
47764;SDS011;33529;49.242;8.670;2022-07-23T01:44:17;11.85;;;10.27;;
47764;SDS011;33529;49.242;8.670;2022-07-23T01:46:44;11.15;;;10.05;;
47764;SDS011;33529;49.242;8.670;2022-07-23T01:49:11;10.93;;;9.82;;
47764;SDS011;33529;49.242;8.670;2022-07-23T01:51:57;10.77;;;9.68;;
47764;SDS011;33529;49.242;8.670;2022-07-23T01:54:33;9.85;;;8.85;;
47764;SDS011;33529;49.242;8.670;2022-07-23T01:57:02;10.02;;;9.02;;
47764;SDS011;33529;49.242;8.670;2022-07-23T01:59:29;11.23;;;8.80;;
47764;SDS011;33529;49.242;8.670;2022-07-23T02:01:56;11.23;;;9.20;;
47764;SDS011;33529;49.242;8.670;2022-07-23T02:04:24;12.90;;;8.50;;
47764;SDS011;33529;49.242;8.670;2022-07-23T02:06:52;11.23;;;9.30;;
47764;SDS011;33529;49.242;8.670;2022-07-23T02:09:20;9.80;;;8.80;;
47764;SDS011;33529;49.242;8.670;2022-07-23T02:11:47;10.88;;;9.23;;
47764;SDS011;33529;49.242;8.670;2022-07-23T02:14:14;11.50;;;9.20;;
47764;SDS011;33529;49.242;8.670;2022-07-23T02:16:41;10.38;;;9.38;;
47764;SDS011;33529;49.242;8.670;2022-07-23T02:19:08;9.93;;;8.98;;
47764;SDS011;33529;49.242;8.670;2022-07-23T02:21:35;10.55;;;8.85;;
47764;SDS011;33529;49.242;8.670;2022-07-23T02:24:03;10.02;;;9.02;;
47764;SDS011;33529;49.242;8.670;2022-07-23T02:26:31;10.75;;;9.60;;
47764;SDS011;33529;49.242;8.670;2022-07-23T02:29:04;10.73;;;9.40;;
47764;SDS011;33529;49.242;8.670;2022-07-23T02:31:31;11.38;;;9.27;;
47764;SDS011;33529;49.242;8.670;2022-07-23T02:33:58;11.25;;;9.60;;
47764;SDS011;33529;49.242;8.670;2022-07-23T02:36:26;9.77;;;8.80;;
47764;SDS011;33529;49.242;8.670;2022-07-23T02:38:54;11.18;;;8.68;;
47764;SDS011;33529;49.242;8.670;2022-07-23T02:41:21;11.25;;;9.90;;
47764;SDS011;33529;49.242;8.670;2022-07-23T02:43:48;11.35;;;10.35;;
47764;SDS011;33529;49.242;8.670;2022-07-23T02:46:15;12.13;;;10.13;;
47764;SDS011;33529;49.242;8.670;2022-07-23T02:48:42;11.23;;;9.60;;
47764;SDS011;33529;49.242;8.670;2022-07-23T02:51:09;10.95;;;9.70;;
47764;SDS011;33529;49.242;8.670;2022-07-23T02:53:45;9.73;;;8.68;;
47764;SDS011;33529;49.242;8.670;2022-07-23T02:56:12;10.02;;;9.02;;
47764;SDS011;33529;49.242;8.670;2022-07-23T02:58:40;10.18;;;9.18;;
47764;SDS011;33529;49.242;8.670;2022-07-23T03:01:08;9.55;;;8.55;;
47764;SDS011;33529;49.242;8.670;2022-07-23T03:03:35;12.50;;;8.65;;
47764;SDS011;33529;49.242;8.670;2022-07-23T03:06:02;10.20;;;8.85;;
47764;SDS011;33529;49.242;8.670;2022-07-23T03:08:29;10.85;;;9.38;;
47764;SDS011;33529;49.242;8.670;2022-07-23T03:10:56;10.50;;;9.38;;
47764;SDS011;33529;49.242;8.670;2022-07-23T03:13:23;10.15;;;8.73;;
47764;SDS011;33529;49.242;8.670;2022-07-23T03:15:51;10.02;;;9.02;;
47764;SDS011;33529;49.242;8.670;2022-07-23T03:18:18;10.32;;;9.23;;
47764;SDS011;33529;49.242;8.670;2022-07-23T03:20:45;9.88;;;8.60;;
47764;SDS011;33529;49.242;8.670;2022-07-23T03:23:11;10.57;;;9.48;;
47764;SDS011;33529;49.242;8.670;2022-07-23T03:25:39;11.32;;;9.43;;
47764;SDS011;33529;49.242;8.670;2022-07-23T03:28:06;11.23;;;8.73;;
47764;SDS011;33529;49.242;8.670;2022-07-23T03:30:33;9.98;;;8.95;;
47764;SDS011;33529;49.242;8.670;2022-07-23T03:33:00;9.73;;;8.82;;
47764;SDS011;33529;49.242;8.670;2022-07-23T03:35:27;11.90;;;8.60;;
47764;SDS011;33529;49.242;8.670;2022-07-23T03:38:17;10.73;;;8.82;;
47764;SDS011;33529;49.242;8.670;2022-07-23T03:40:45;10.93;;;9.50;;
47764;SDS011;33529;49.242;8.670;2022-07-23T03:43:11;11.95;;;9.88;;
47764;SDS011;33529;49.242;8.670;2022-07-23T03:45:38;10.63;;;9.52;;
47764;SDS011;33529;49.242;8.670;2022-07-23T03:48:05;13.15;;;10.10;;
47764;SDS011;33529;49.242;8.670;2022-07-23T03:50:32;8.80;;;7.90;;
47764;SDS011;33529;49.242;8.670;2022-07-23T03:53:01;10.85;;;9.00;;
47764;SDS011;33529;49.242;8.670;2022-07-23T03:55:28;10.27;;;8.73;;
47764;SDS011;33529;49.242;8.670;2022-07-23T03:57:54;10.07;;;9.05;;
47764;SDS011;33529;49.242;8.670;2022-07-23T04:00:22;11.40;;;9.27;;
47764;SDS011;33529;49.242;8.670;2022-07-23T04:02:50;9.68;;;8.45;;
47764;SDS011;33529;49.242;8.670;2022-07-23T04:05:17;9.93;;;8.45;;
47764;SDS011;33529;49.242;8.670;2022-07-23T04:07:48;10.55;;;8.23;;
47764;SDS011;33529;49.242;8.670;2022-07-23T04:10:16;11.52;;;8.93;;
47764;SDS011;33529;49.242;8.670;2022-07-23T04:12:43;10.45;;;8.70;;
47764;SDS011;33529;49.242;8.670;2022-07-23T04:15:10;9.32;;;8.43;;
47764;SDS011;33529;49.242;8.670;2022-07-23T04:17:37;10.13;;;9.13;;
47764;SDS011;33529;49.242;8.670;2022-07-23T04:20:05;11.85;;;8.77;;
47764;SDS011;33529;49.242;8.670;2022-07-23T04:22:38;10.18;;;8.32;;
47764;SDS011;33529;49.242;8.670;2022-07-23T04:25:05;9.25;;;8.35;;
47764;SDS011;33529;49.242;8.670;2022-07-23T04:27:32;9.57;;;8.57;;
47764;SDS011;33529;49.242;8.670;2022-07-23T04:29:59;9.80;;;8.57;;
47764;SDS011;33529;49.242;8.670;2022-07-23T04:32:27;10.02;;;8.50;;
47764;SDS011;33529;49.242;8.670;2022-07-23T04:34:54;8.52;;;7.63;;
47764;SDS011;33529;49.242;8.670;2022-07-23T04:37:21;9.57;;;8.30;;
47764;SDS011;33529;49.242;8.670;2022-07-23T04:39:48;8.75;;;7.85;;
47764;SDS011;33529;49.242;8.670;2022-07-23T04:42:15;10.65;;;8.75;;
47764;SDS011;33529;49.242;8.670;2022-07-23T04:44:42;10.23;;;9.18;;
47764;SDS011;33529;49.242;8.670;2022-07-23T04:47:09;10.10;;;9.10;;
47764;SDS011;33529;49.242;8.670;2022-07-23T04:49:40;9.85;;;8.75;;
47764;SDS011;33529;49.242;8.670;2022-07-23T04:52:07;9.32;;;8.48;;
47764;SDS011;33529;49.242;8.670;2022-07-23T04:54:34;9.38;;;8.43;;
47764;SDS011;33529;49.242;8.670;2022-07-23T04:57:01;9.80;;;8.77;;
47764;SDS011;33529;49.242;8.670;2022-07-23T04:59:29;11.82;;;8.65;;
47764;SDS011;33529;49.242;8.670;2022-07-23T05:04:29;11.45;;;7.82;;
47764;SDS011;33529;49.242;8.670;2022-07-23T05:06:58;11.95;;;8.52;;
47764;SDS011;33529;49.242;8.670;2022-07-23T05:09:25;8.75;;;7.85;;
47764;SDS011;33529;49.242;8.670;2022-07-23T05:11:52;10.10;;;8.10;;
47764;SDS011;33529;49.242;8.670;2022-07-23T05:14:20;8.77;;;7.88;;
47764;SDS011;33529;49.242;8.670;2022-07-23T05:16:48;10.57;;;8.15;;
47764;SDS011;33529;49.242;8.670;2022-07-23T05:19:20;10.45;;;8.07;;
47764;SDS011;33529;49.242;8.670;2022-07-23T05:21:51;10.82;;;8.82;;
47764;SDS011;33529;49.242;8.670;2022-07-23T05:24:18;11.93;;;9.05;;
47764;SDS011;33529;49.242;8.670;2022-07-23T05:26:45;10.43;;;9.32;;
47764;SDS011;33529;49.242;8.670;2022-07-23T05:29:12;13.25;;;10.43;;
47764;SDS011;33529;49.242;8.670;2022-07-23T05:31:39;11.23;;;10.07;;
47764;SDS011;33529;49.242;8.670;2022-07-23T05:34:07;13.07;;;9.68;;
47764;SDS011;33529;49.242;8.670;2022-07-23T05:36:36;11.40;;;9.27;;
47764;SDS011;33529;49.242;8.670;2022-07-23T05:39:03;9.55;;;8.65;;
47764;SDS011;33529;49.242;8.670;2022-07-23T05:41:34;11.60;;;9.43;;
47764;SDS011;33529;49.242;8.670;2022-07-23T05:44:02;11.35;;;9.90;;
47764;SDS011;33529;49.242;8.670;2022-07-23T05:46:30;11.48;;;10.30;;
47764;SDS011;33529;49.242;8.670;2022-07-23T05:49:03;13.82;;;10.07;;
47764;SDS011;33529;49.242;8.670;2022-07-23T05:52:03;11.65;;;9.82;;
47764;SDS011;33529;49.242;8.670;2022-07-23T05:54:49;13.27;;;10.80;;
47764;SDS011;33529;49.242;8.670;2022-07-23T05:57:16;12.00;;;10.02;;
47764;SDS011;33529;49.242;8.670;2022-07-23T05:59:50;10.38;;;9.35;;
47764;SDS011;33529;49.242;8.670;2022-07-23T06:02:17;12.82;;;9.55;;
47764;SDS011;33529;49.242;8.670;2022-07-23T06:04:44;9.73;;;8.73;;
47764;SDS011;33529;49.242;8.670;2022-07-23T06:07:23;11.02;;;9.55;;
47764;SDS011;33529;49.242;8.670;2022-07-23T06:09:51;9.57;;;8.57;;
47764;SDS011;33529;49.242;8.670;2022-07-23T06:12:18;10.27;;;9.23;;
47764;SDS011;33529;49.242;8.670;2022-07-23T06:14:45;9.65;;;8.75;;
47764;SDS011;33529;49.242;8.670;2022-07-23T06:17:15;11.07;;;9.93;;
47764;SDS011;33529;49.242;8.670;2022-07-23T06:19:42;10.00;;;9.00;;
47764;SDS011;33529;49.242;8.670;2022-07-23T06:22:09;11.27;;;10.05;;
47764;SDS011;33529;49.242;8.670;2022-07-23T06:24:36;10.65;;;8.90;;
47764;SDS011;33529;49.242;8.670;2022-07-23T06:27:03;11.20;;;10.10;;
47764;SDS011;33529;49.242;8.670;2022-07-23T06:29:31;10.95;;;9.68;;
47764;SDS011;33529;49.242;8.670;2022-07-23T06:31:58;10.57;;;9.48;;
47764;SDS011;33529;49.242;8.670;2022-07-23T06:34:25;11.73;;;10.25;;
47764;SDS011;33529;49.242;8.670;2022-07-23T06:36:55;11.02;;;9.82;;
47764;SDS011;33529;49.242;8.670;2022-07-23T06:39:22;11.90;;;10.77;;
47764;SDS011;33529;49.242;8.670;2022-07-23T06:41:49;11.52;;;10.43;;
47764;SDS011;33529;49.242;8.670;2022-07-23T06:44:17;12.23;;;10.88;;
47764;SDS011;33529;49.242;8.670;2022-07-23T06:46:46;12.70;;;11.38;;
47764;SDS011;33529;49.242;8.670;2022-07-23T06:49:14;10.88;;;9.77;;
47764;SDS011;33529;49.242;8.670;2022-07-23T06:51:41;11.90;;;10.52;;
47764;SDS011;33529;49.242;8.670;2022-07-23T06:54:08;11.02;;;9.80;;
47764;SDS011;33529;49.242;8.670;2022-07-23T06:56:35;12.30;;;10.63;;
47764;SDS011;33529;49.242;8.670;2022-07-23T06:59:02;13.18;;;10.07;;
47764;SDS011;33529;49.242;8.670;2022-07-23T07:01:29;12.73;;;11.38;;
47764;SDS011;33529;49.242;8.670;2022-07-23T07:03:59;11.30;;;9.93;;
47764;SDS011;33529;49.242;8.670;2022-07-23T07:06:26;12.75;;;10.13;;
47764;SDS011;33529;49.242;8.670;2022-07-23T07:08:53;11.30;;;10.10;;
47764;SDS011;33529;49.242;8.670;2022-07-23T07:11:21;15.55;;;11.23;;
47764;SDS011;33529;49.242;8.670;2022-07-23T07:13:47;15.32;;;11.98;;
47764;SDS011;33529;49.242;8.670;2022-07-23T07:16:14;12.35;;;10.52;;
47764;SDS011;33529;49.242;8.670;2022-07-23T07:18:41;12.30;;;10.88;;
47764;SDS011;33529;49.242;8.670;2022-07-23T07:21:08;12.88;;;11.13;;
47764;SDS011;33529;49.242;8.670;2022-07-23T07:23:35;12.45;;;10.48;;
47764;SDS011;33529;49.242;8.670;2022-07-23T07:26:02;12.60;;;10.95;;
47764;SDS011;33529;49.242;8.670;2022-07-23T07:28:28;14.55;;;11.82;;
47764;SDS011;33529;49.242;8.670;2022-07-23T07:30:55;12.50;;;10.63;;
47764;SDS011;33529;49.242;8.670;2022-07-23T07:33:22;13.23;;;10.85;;
47764;SDS011;33529;49.242;8.670;2022-07-23T07:35:49;13.15;;;11.75;;
47764;SDS011;33529;49.242;8.670;2022-07-23T07:38:16;13.70;;;12.25;;
47764;SDS011;33529;49.242;8.670;2022-07-23T07:40:43;11.25;;;10.05;;
47764;SDS011;33529;49.242;8.670;2022-07-23T07:43:10;12.68;;;11.38;;
47764;SDS011;33529;49.242;8.670;2022-07-23T07:45:36;10.70;;;9.60;;
47764;SDS011;33529;49.242;8.670;2022-07-23T07:48:04;12.40;;;11.07;;
47764;SDS011;33529;49.242;8.670;2022-07-23T07:50:31;12.35;;;10.20;;
47764;SDS011;33529;49.242;8.670;2022-07-23T07:52:58;10.82;;;9.70;;
47764;SDS011;33529;49.242;8.670;2022-07-23T07:55:24;12.90;;;10.75;;
47764;SDS011;33529;49.242;8.670;2022-07-23T07:57:53;13.38;;;11.98;;
47764;SDS011;33529;49.242;8.670;2022-07-23T08:00:20;14.32;;;12.70;;
47764;SDS011;33529;49.242;8.670;2022-07-23T08:02:48;15.35;;;13.43;;
47764;SDS011;33529;49.242;8.670;2022-07-23T08:05:20;14.85;;;13.27;;
47764;SDS011;33529;49.242;8.670;2022-07-23T08:07:53;14.35;;;12.95;;
47764;SDS011;33529;49.242;8.670;2022-07-23T08:10:22;15.07;;;13.07;;
47764;SDS011;33529;49.242;8.670;2022-07-23T08:12:50;14.05;;;12.60;;
47764;SDS011;33529;49.242;8.670;2022-07-23T08:15:20;16.38;;;11.95;;
47764;SDS011;33529;49.242;8.670;2022-07-23T08:17:48;13.98;;;11.75;;
47764;SDS011;33529;49.242;8.670;2022-07-23T08:20:16;11.75;;;10.65;;
47764;SDS011;33529;49.242;8.670;2022-07-23T08:22:51;14.52;;;12.80;;
47764;SDS011;33529;49.242;8.670;2022-07-23T08:25:26;12.82;;;11.55;;
47764;SDS011;33529;49.242;8.670;2022-07-23T08:27:57;14.40;;;11.95;;
47764;SDS011;33529;49.242;8.670;2022-07-23T08:30:26;15.38;;;13.88;;
47764;SDS011;33529;49.242;8.670;2022-07-23T08:32:57;12.55;;;11.35;;
47764;SDS011;33529;49.242;8.670;2022-07-23T08:35:28;13.20;;;11.90;;
47764;SDS011;33529;49.242;8.670;2022-07-23T08:37:57;13.80;;;12.40;;
47764;SDS011;33529;49.242;8.670;2022-07-23T08:40:26;14.23;;;11.68;;
47764;SDS011;33529;49.242;8.670;2022-07-23T08:42:54;12.95;;;11.48;;
47764;SDS011;33529;49.242;8.670;2022-07-23T08:45:21;14.25;;;12.77;;
47764;SDS011;33529;49.242;8.670;2022-07-23T08:47:50;14.30;;;12.75;;
47764;SDS011;33529;49.242;8.670;2022-07-23T08:50:19;14.20;;;12.70;;
47764;SDS011;33529;49.242;8.670;2022-07-23T08:52:48;13.38;;;11.50;;
47764;SDS011;33529;49.242;8.670;2022-07-23T08:55:17;16.98;;;12.18;;
47764;SDS011;33529;49.242;8.670;2022-07-23T08:57:49;16.25;;;14.15;;
47764;SDS011;33529;49.242;8.670;2022-07-23T09:00:18;14.77;;;12.68;;
47764;SDS011;33529;49.242;8.670;2022-07-23T09:02:46;12.63;;;11.35;;
47764;SDS011;33529;49.242;8.670;2022-07-23T09:05:14;14.35;;;12.95;;
47764;SDS011;33529;49.242;8.670;2022-07-23T09:10:30;13.07;;;11.68;;
47764;SDS011;33529;49.242;8.670;2022-07-23T09:13:25;14.73;;;12.00;;
47764;SDS011;33529;49.242;8.670;2022-07-23T09:16:11;12.32;;;11.07;;
47764;SDS011;33529;49.242;8.670;2022-07-23T09:21:11;12.60;;;10.90;;
47764;SDS011;33529;49.242;8.670;2022-07-23T09:23:47;12.38;;;11.07;;
47764;SDS011;33529;49.242;8.670;2022-07-23T09:26:24;13.27;;;11.13;;
47764;SDS011;33529;49.242;8.670;2022-07-23T09:29:06;14.07;;;10.90;;
47764;SDS011;33529;49.242;8.670;2022-07-23T09:34:24;14.00;;;11.63;;
47764;SDS011;33529;49.242;8.670;2022-07-23T09:36:56;13.40;;;12.00;;
47764;SDS011;33529;49.242;8.670;2022-07-23T09:39:34;12.93;;;11.63;;
47764;SDS011;33529;49.242;8.670;2022-07-23T09:42:20;13.15;;;11.70;;
47764;SDS011;33529;49.242;8.670;2022-07-23T09:44:49;13.35;;;11.45;;
47764;SDS011;33529;49.242;8.670;2022-07-23T09:47:19;13.70;;;12.02;;
47764;SDS011;33529;49.242;8.670;2022-07-23T09:52:36;13.40;;;11.48;;
47764;SDS011;33529;49.242;8.670;2022-07-23T09:55:14;15.98;;;12.35;;
47764;SDS011;33529;49.242;8.670;2022-07-23T09:57:42;14.52;;;11.65;;
47764;SDS011;33529;49.242;8.670;2022-07-23T10:00:16;13.82;;;11.93;;
47764;SDS011;33529;49.242;8.670;2022-07-23T10:02:43;11.25;;;10.07;;
47764;SDS011;33529;49.242;8.670;2022-07-23T10:05:28;11.55;;;10.45;;
47764;SDS011;33529;49.242;8.670;2022-07-23T10:08:05;11.93;;;10.63;;
47764;SDS011;33529;49.242;8.670;2022-07-23T10:10:53;11.50;;;10.30;;
47764;SDS011;33529;49.242;8.670;2022-07-23T10:13:24;10.47;;;9.37;;
47764;SDS011;33529;49.242;8.670;2022-07-23T10:16:10;11.13;;;10.05;;
47764;SDS011;33529;49.242;8.670;2022-07-23T10:18:43;13.35;;;10.55;;
47764;SDS011;33529;49.242;8.670;2022-07-23T10:21:11;11.52;;;9.90;;
47764;SDS011;33529;49.242;8.670;2022-07-23T10:23:45;11.18;;;9.98;;
47764;SDS011;33529;49.242;8.670;2022-07-23T10:26:19;11.32;;;9.90;;
47764;SDS011;33529;49.242;8.670;2022-07-23T10:29:11;11.00;;;9.75;;
47764;SDS011;33529;49.242;8.670;2022-07-23T10:31:50;11.95;;;10.75;;
47764;SDS011;33529;49.242;8.670;2022-07-23T10:34:33;11.07;;;9.98;;
47764;SDS011;33529;49.242;8.670;2022-07-23T10:37:35;12.10;;;10.57;;
47764;SDS011;33529;49.242;8.670;2022-07-23T10:40:08;9.55;;;8.55;;
47764;SDS011;33529;49.242;8.670;2022-07-23T10:42:35;9.45;;;8.23;;
47764;SDS011;33529;49.242;8.670;2022-07-23T10:45:21;11.50;;;10.30;;
47764;SDS011;33529;49.242;8.670;2022-07-23T10:47:49;10.88;;;9.43;;
47764;SDS011;33529;49.242;8.670;2022-07-23T10:50:26;9.38;;;8.27;;
47764;SDS011;33529;49.242;8.670;2022-07-23T10:58:02;9.50;;;8.50;;
47764;SDS011;33529;49.242;8.670;2022-07-23T11:00:32;14.23;;;10.40;;
47764;SDS011;33529;49.242;8.670;2022-07-23T11:03:01;12.75;;;10.20;;
47764;SDS011;33529;49.242;8.670;2022-07-23T11:05:40;9.85;;;8.15;;
47764;SDS011;33529;49.242;8.670;2022-07-23T11:10:38;10.13;;;8.60;;
47764;SDS011;33529;49.242;8.670;2022-07-23T11:31:58;10.55;;;9.55;;
47764;SDS011;33529;49.242;8.670;2022-07-23T11:37:04;9.88;;;8.80;;
47764;SDS011;33529;49.242;8.670;2022-07-23T11:39:36;9.45;;;8.52;;
47764;SDS011;33529;49.242;8.670;2022-07-23T11:42:05;8.57;;;7.72;;
47764;SDS011;33529;49.242;8.670;2022-07-23T11:44:37;9.40;;;8.50;;
47764;SDS011;33529;49.242;8.670;2022-07-23T11:47:05;8.57;;;7.78;;
47764;SDS011;33529;49.242;8.670;2022-07-23T11:49:34;8.68;;;7.88;;
47764;SDS011;33529;49.242;8.670;2022-07-23T11:52:12;8.88;;;7.90;;
47764;SDS011;33529;49.242;8.670;2022-07-23T11:54:50;11.43;;;9.45;;
47764;SDS011;33529;49.242;8.670;2022-07-23T11:57:23;9.73;;;8.73;;
47764;SDS011;33529;49.242;8.670;2022-07-23T11:59:53;11.18;;;9.30;;
47764;SDS011;33529;49.242;8.670;2022-07-23T12:02:23;9.95;;;8.95;;
47764;SDS011;33529;49.242;8.670;2022-07-23T12:04:51;9.50;;;8.50;;
47764;SDS011;33529;49.242;8.670;2022-07-23T12:07:26;9.70;;;8.75;;
47764;SDS011;33529;49.242;8.670;2022-07-23T12:10:03;10.55;;;8.57;;
47764;SDS011;33529;49.242;8.670;2022-07-23T12:12:39;10.02;;;9.02;;
47764;SDS011;33529;49.242;8.670;2022-07-23T12:15:08;9.70;;;8.70;;
47764;SDS011;33529;49.242;8.670;2022-07-23T12:17:39;9.88;;;8.88;;
47764;SDS011;33529;49.242;8.670;2022-07-23T12:20:36;9.00;;;8.10;;
47764;SDS011;33529;49.242;8.670;2022-07-23T12:23:04;9.88;;;8.05;;
47764;SDS011;33529;49.242;8.670;2022-07-23T12:25:33;7.97;;;7.22;;
47764;SDS011;33529;49.242;8.670;2022-07-23T12:30:57;8.40;;;7.60;;
47764;SDS011;33529;49.242;8.670;2022-07-23T12:35:54;8.48;;;7.50;;
47764;SDS011;33529;49.242;8.670;2022-07-23T12:38:23;8.95;;;8.07;;
47764;SDS011;33529;49.242;8.670;2022-07-23T12:40:52;8.65;;;7.18;;
47764;SDS011;33529;49.242;8.670;2022-07-23T12:43:22;9.50;;;8.60;;
47764;SDS011;33529;49.242;8.670;2022-07-23T12:48:24;9.68;;;8.18;;
47764;SDS011;33529;49.242;8.670;2022-07-23T12:51:01;9.07;;;8.20;;
47764;SDS011;33529;49.242;8.670;2022-07-23T12:53:31;9.10;;;8.20;;
47764;SDS011;33529;49.242;8.670;2022-07-23T12:56:09;8.45;;;7.57;;
47764;SDS011;33529;49.242;8.670;2022-07-23T12:58:42;8.85;;;7.03;;
47764;SDS011;33529;49.242;8.670;2022-07-23T13:01:16;8.48;;;7.68;;
47764;SDS011;33529;49.242;8.670;2022-07-23T13:03:56;8.32;;;7.50;;
47764;SDS011;33529;49.242;8.670;2022-07-23T13:06:26;8.50;;;7.70;;
47764;SDS011;33529;49.242;8.670;2022-07-23T13:08:54;8.55;;;7.50;;
47764;SDS011;33529;49.242;8.670;2022-07-23T13:11:22;8.20;;;7.50;;
47764;SDS011;33529;49.242;8.670;2022-07-23T13:13:49;8.00;;;7.20;;
47764;SDS011;33529;49.242;8.670;2022-07-23T13:16:16;8.93;;;7.05;;
47764;SDS011;33529;49.242;8.670;2022-07-23T13:18:47;8.30;;;7.50;;
47764;SDS011;33529;49.242;8.670;2022-07-23T13:21:14;9.82;;;6.80;;
47764;SDS011;33529;49.242;8.670;2022-07-23T13:23:43;8.98;;;8.07;;
47764;SDS011;33529;49.242;8.670;2022-07-23T13:26:10;8.30;;;7.50;;
47764;SDS011;33529;49.242;8.670;2022-07-23T13:28:36;8.30;;;7.40;;
47764;SDS011;33529;49.242;8.670;2022-07-23T13:31:03;9.48;;;7.88;;
47764;SDS011;33529;49.242;8.670;2022-07-23T13:33:31;8.27;;;7.47;;
47764;SDS011;33529;49.242;8.670;2022-07-23T13:35:58;9.20;;;7.85;;
47764;SDS011;33529;49.242;8.670;2022-07-23T13:38:24;8.27;;;7.47;;
47764;SDS011;33529;49.242;8.670;2022-07-23T13:40:52;8.75;;;7.95;;
47764;SDS011;33529;49.242;8.670;2022-07-23T13:43:21;10.40;;;7.90;;
47764;SDS011;33529;49.242;8.670;2022-07-23T13:45:50;9.38;;;8.15;;
47764;SDS011;33529;49.242;8.670;2022-07-23T13:48:18;8.60;;;7.80;;
47764;SDS011;33529;49.242;8.670;2022-07-23T13:50:46;10.25;;;7.72;;
47764;SDS011;33529;49.242;8.670;2022-07-23T13:53:15;10.50;;;8.32;;
47764;SDS011;33529;49.242;8.670;2022-07-23T13:55:48;7.85;;;7.07;;
47764;SDS011;33529;49.242;8.670;2022-07-23T13:58:16;8.60;;;7.80;;
47764;SDS011;33529;49.242;8.670;2022-07-23T14:00:50;8.70;;;7.80;;
47764;SDS011;33529;49.242;8.670;2022-07-23T14:03:20;8.38;;;7.57;;
47764;SDS011;33529;49.242;8.670;2022-07-23T14:05:52;9.65;;;8.02;;
47764;SDS011;33529;49.242;8.670;2022-07-23T14:08:22;9.30;;;8.30;;
47764;SDS011;33529;49.242;8.670;2022-07-23T14:10:49;9.60;;;8.65;;
47764;SDS011;33529;49.242;8.670;2022-07-23T14:13:16;9.00;;;8.20;;
47764;SDS011;33529;49.242;8.670;2022-07-23T14:15:46;8.95;;;8.02;;
47764;SDS011;33529;49.242;8.670;2022-07-23T14:18:15;9.05;;;8.15;;
47764;SDS011;33529;49.242;8.670;2022-07-23T14:20:42;9.23;;;8.23;;
47764;SDS011;33529;49.242;8.670;2022-07-23T14:23:09;8.80;;;7.90;;
47764;SDS011;33529;49.242;8.670;2022-07-23T14:25:39;9.05;;;8.02;;
47764;SDS011;33529;49.242;8.670;2022-07-23T14:28:06;9.45;;;8.45;;
47764;SDS011;33529;49.242;8.670;2022-07-23T14:30:35;9.75;;;8.57;;
47764;SDS011;33529;49.242;8.670;2022-07-23T14:33:02;8.77;;;7.85;;
47764;SDS011;33529;49.242;8.670;2022-07-23T14:35:30;8.82;;;8.02;;
47764;SDS011;33529;49.242;8.670;2022-07-23T14:37:56;8.88;;;7.97;;
47764;SDS011;33529;49.242;8.670;2022-07-23T14:40:26;9.10;;;8.23;;
47764;SDS011;33529;49.242;8.670;2022-07-23T14:45:28;8.90;;;8.10;;
47764;SDS011;33529;49.242;8.670;2022-07-23T14:47:56;9.38;;;8.02;;
47764;SDS011;33529;49.242;8.670;2022-07-23T14:50:24;9.73;;;8.00;;
47764;SDS011;33529;49.242;8.670;2022-07-23T14:52:52;10.32;;;8.90;;
47764;SDS011;33529;49.242;8.670;2022-07-23T14:55:19;10.38;;;8.88;;
47764;SDS011;33529;49.242;8.670;2022-07-23T14:57:46;9.02;;;8.10;;
47764;SDS011;33529;49.242;8.670;2022-07-23T15:00:13;9.25;;;8.30;;
47764;SDS011;33529;49.242;8.670;2022-07-23T15:02:41;9.02;;;8.20;;
47764;SDS011;33529;49.242;8.670;2022-07-23T15:05:10;12.10;;;8.48;;
47764;SDS011;33529;49.242;8.670;2022-07-23T15:07:37;10.65;;;7.75;;
47764;SDS011;33529;49.242;8.670;2022-07-23T15:10:04;9.25;;;8.35;;
47764;SDS011;33529;49.242;8.670;2022-07-23T15:15:03;9.02;;;7.80;;
47764;SDS011;33529;49.242;8.670;2022-07-23T15:17:35;11.20;;;8.27;;
47764;SDS011;33529;49.242;8.670;2022-07-23T15:20:02;9.15;;;8.23;;
47764;SDS011;33529;49.242;8.670;2022-07-23T15:22:30;8.35;;;7.55;;
47764;SDS011;33529;49.242;8.670;2022-07-23T15:24:57;8.68;;;7.78;;
47764;SDS011;33529;49.242;8.670;2022-07-23T15:27:27;8.30;;;7.28;;
47764;SDS011;33529;49.242;8.670;2022-07-23T15:29:56;8.30;;;7.07;;
47764;SDS011;33529;49.242;8.670;2022-07-23T15:32:23;8.15;;;7.35;;
47764;SDS011;33529;49.242;8.670;2022-07-23T15:34:53;7.93;;;7.07;;
47764;SDS011;33529;49.242;8.670;2022-07-23T15:37:20;9.00;;;7.97;;
47764;SDS011;33529;49.242;8.670;2022-07-23T15:39:50;7.35;;;6.75;;
47764;SDS011;33529;49.242;8.670;2022-07-23T15:42:18;7.68;;;6.97;;